sensor_id;sensor_type;location;lat;lon;timestamp;P1;durP1;ratioP1;P2;durP2;ratioP2
3405;SDS011;10008;48.682;9.016;2022-10-16T00:01:16;5.40;;;2.07;;
3405;SDS011;10008;48.682;9.016;2022-10-16T00:03:45;4.60;;;1.70;;
3405;SDS011;10008;48.682;9.016;2022-10-16T00:06:12;4.90;;;1.90;;
3405;SDS011;10008;48.682;9.016;2022-10-16T00:08:39;4.83;;;1.60;;
3405;SDS011;10008;48.682;9.016;2022-10-16T00:11:07;4.20;;;1.67;;
3405;SDS011;10008;48.682;9.016;2022-10-16T00:13:44;5.63;;;1.93;;
3405;SDS011;10008;48.682;9.016;2022-10-16T00:16:12;5.80;;;1.80;;
3405;SDS011;10008;48.682;9.016;2022-10-16T00:18:39;3.90;;;1.50;;
3405;SDS011;10008;48.682;9.016;2022-10-16T00:23:54;4.90;;;1.40;;
3405;SDS011;10008;48.682;9.016;2022-10-16T00:26:24;6.43;;;1.67;;
3405;SDS011;10008;48.682;9.016;2022-10-16T00:28:51;9.00;;;1.60;;
3405;SDS011;10008;48.682;9.016;2022-10-16T00:31:17;4.57;;;1.77;;
3405;SDS011;10008;48.682;9.016;2022-10-16T00:33:45;4.00;;;1.43;;
3405;SDS011;10008;48.682;9.016;2022-10-16T00:36:13;5.20;;;1.63;;
3405;SDS011;10008;48.682;9.016;2022-10-16T00:38:40;4.60;;;1.50;;
3405;SDS011;10008;48.682;9.016;2022-10-16T00:41:07;4.93;;;1.73;;
3405;SDS011;10008;48.682;9.016;2022-10-16T00:46:04;5.13;;;1.70;;
3405;SDS011;10008;48.682;9.016;2022-10-16T00:48:59;4.30;;;1.47;;
3405;SDS011;10008;48.682;9.016;2022-10-16T00:51:31;6.53;;;1.30;;
3405;SDS011;10008;48.682;9.016;2022-10-16T00:53:59;7.43;;;1.53;;
3405;SDS011;10008;48.682;9.016;2022-10-16T00:56:27;6.60;;;1.60;;
3405;SDS011;10008;48.682;9.016;2022-10-16T00:58:53;3.50;;;1.40;;
3405;SDS011;10008;48.682;9.016;2022-10-16T01:01:19;3.90;;;1.30;;
3405;SDS011;10008;48.682;9.016;2022-10-16T01:03:45;3.70;;;1.30;;
3405;SDS011;10008;48.682;9.016;2022-10-16T01:11:38;5.20;;;1.60;;
3405;SDS011;10008;48.682;9.016;2022-10-16T01:14:29;3.97;;;1.40;;
3405;SDS011;10008;48.682;9.016;2022-10-16T01:17:06;4.57;;;2.00;;
3405;SDS011;10008;48.682;9.016;2022-10-16T01:19:49;6.40;;;1.80;;
3405;SDS011;10008;48.682;9.016;2022-10-16T01:22:38;4.80;;;1.93;;
3405;SDS011;10008;48.682;9.016;2022-10-16T01:25:09;4.40;;;1.63;;
3405;SDS011;10008;48.682;9.016;2022-10-16T01:27:47;4.87;;;1.50;;
3405;SDS011;10008;48.682;9.016;2022-10-16T01:30:22;7.10;;;1.40;;
3405;SDS011;10008;48.682;9.016;2022-10-16T01:32:59;5.17;;;1.60;;
3405;SDS011;10008;48.682;9.016;2022-10-16T01:35:37;6.20;;;1.40;;
3405;SDS011;10008;48.682;9.016;2022-10-16T01:38:28;4.40;;;1.33;;
3405;SDS011;10008;48.682;9.016;2022-10-16T01:41:00;4.50;;;1.40;;
3405;SDS011;10008;48.682;9.016;2022-10-16T01:44:04;3.87;;;1.40;;
3405;SDS011;10008;48.682;9.016;2022-10-16T01:46:53;5.20;;;1.30;;
3405;SDS011;10008;48.682;9.016;2022-10-16T01:49:20;6.53;;;1.40;;
3405;SDS011;10008;48.682;9.016;2022-10-16T01:51:49;4.60;;;1.60;;
3405;SDS011;10008;48.682;9.016;2022-10-16T01:54:19;3.73;;;1.47;;
3405;SDS011;10008;48.682;9.016;2022-10-16T01:56:47;5.10;;;1.33;;
3405;SDS011;10008;48.682;9.016;2022-10-16T01:59:16;6.70;;;1.77;;
3405;SDS011;10008;48.682;9.016;2022-10-16T02:01:47;6.73;;;1.63;;
3405;SDS011;10008;48.682;9.016;2022-10-16T02:04:19;3.63;;;1.30;;
3405;SDS011;10008;48.682;9.016;2022-10-16T02:06:54;5.27;;;1.40;;
3405;SDS011;10008;48.682;9.016;2022-10-16T02:09:20;4.17;;;1.43;;
3405;SDS011;10008;48.682;9.016;2022-10-16T02:11:46;5.80;;;1.30;;
3405;SDS011;10008;48.682;9.016;2022-10-16T02:14:14;3.90;;;1.37;;
3405;SDS011;10008;48.682;9.016;2022-10-16T02:16:42;3.60;;;1.13;;
3405;SDS011;10008;48.682;9.016;2022-10-16T02:19:13;4.00;;;1.10;;
3405;SDS011;10008;48.682;9.016;2022-10-16T02:21:42;4.40;;;0.97;;
3405;SDS011;10008;48.682;9.016;2022-10-16T02:30:20;4.37;;;1.10;;
3405;SDS011;10008;48.682;9.016;2022-10-16T02:32:53;3.97;;;1.20;;
3405;SDS011;10008;48.682;9.016;2022-10-16T02:35:21;3.80;;;1.20;;
3405;SDS011;10008;48.682;9.016;2022-10-16T02:37:49;5.30;;;1.20;;
3405;SDS011;10008;48.682;9.016;2022-10-16T02:40:16;4.80;;;1.17;;
3405;SDS011;10008;48.682;9.016;2022-10-16T02:42:43;4.40;;;1.40;;
3405;SDS011;10008;48.682;9.016;2022-10-16T02:45:09;5.73;;;1.50;;
3405;SDS011;10008;48.682;9.016;2022-10-16T02:47:36;4.50;;;1.10;;
3405;SDS011;10008;48.682;9.016;2022-10-16T02:50:02;4.10;;;1.30;;
3405;SDS011;10008;48.682;9.016;2022-10-16T02:52:29;3.50;;;1.37;;
3405;SDS011;10008;48.682;9.016;2022-10-16T02:54:54;8.27;;;1.43;;
3405;SDS011;10008;48.682;9.016;2022-10-16T02:57:20;3.70;;;1.10;;
3405;SDS011;10008;48.682;9.016;2022-10-16T02:59:46;3.80;;;1.00;;
3405;SDS011;10008;48.682;9.016;2022-10-16T03:02:12;4.17;;;1.20;;
3405;SDS011;10008;48.682;9.016;2022-10-16T03:04:37;3.60;;;1.10;;
3405;SDS011;10008;48.682;9.016;2022-10-16T03:07:03;6.80;;;1.20;;
3405;SDS011;10008;48.682;9.016;2022-10-16T03:09:29;5.43;;;1.20;;
3405;SDS011;10008;48.682;9.016;2022-10-16T03:11:55;3.97;;;1.30;;
3405;SDS011;10008;48.682;9.016;2022-10-16T03:14:21;4.40;;;1.50;;
3405;SDS011;10008;48.682;9.016;2022-10-16T03:16:46;4.20;;;1.30;;
3405;SDS011;10008;48.682;9.016;2022-10-16T03:19:12;3.63;;;1.23;;
3405;SDS011;10008;48.682;9.016;2022-10-16T03:21:38;4.00;;;1.13;;
3405;SDS011;10008;48.682;9.016;2022-10-16T03:24:04;4.37;;;1.20;;
3405;SDS011;10008;48.682;9.016;2022-10-16T03:26:30;3.40;;;1.30;;
3405;SDS011;10008;48.682;9.016;2022-10-16T03:28:55;4.73;;;1.37;;
3405;SDS011;10008;48.682;9.016;2022-10-16T03:31:21;3.70;;;1.30;;
3405;SDS011;10008;48.682;9.016;2022-10-16T03:33:47;5.20;;;1.60;;
3405;SDS011;10008;48.682;9.016;2022-10-16T03:36:13;3.70;;;1.30;;
3405;SDS011;10008;48.682;9.016;2022-10-16T03:38:38;5.20;;;1.30;;
3405;SDS011;10008;48.682;9.016;2022-10-16T03:41:04;4.23;;;1.30;;
3405;SDS011;10008;48.682;9.016;2022-10-16T03:43:30;5.43;;;1.70;;
3405;SDS011;10008;48.682;9.016;2022-10-16T03:45:56;5.43;;;1.20;;
3405;SDS011;10008;48.682;9.016;2022-10-16T03:48:21;4.37;;;1.30;;
3405;SDS011;10008;48.682;9.016;2022-10-16T03:50:47;3.37;;;1.13;;
3405;SDS011;10008;48.682;9.016;2022-10-16T03:53:14;3.83;;;1.00;;
3405;SDS011;10008;48.682;9.016;2022-10-16T03:55:43;5.10;;;1.50;;
3405;SDS011;10008;48.682;9.016;2022-10-16T03:58:09;5.47;;;1.80;;
3405;SDS011;10008;48.682;9.016;2022-10-16T04:00:35;4.67;;;1.37;;
3405;SDS011;10008;48.682;9.016;2022-10-16T04:03:04;4.20;;;1.53;;
3405;SDS011;10008;48.682;9.016;2022-10-16T04:05:30;4.90;;;1.90;;
3405;SDS011;10008;48.682;9.016;2022-10-16T04:07:56;4.63;;;1.50;;
3405;SDS011;10008;48.682;9.016;2022-10-16T04:10:21;4.43;;;1.40;;
3405;SDS011;10008;48.682;9.016;2022-10-16T04:12:47;6.30;;;1.57;;
3405;SDS011;10008;48.682;9.016;2022-10-16T04:15:13;4.77;;;1.50;;
3405;SDS011;10008;48.682;9.016;2022-10-16T04:17:39;4.43;;;1.50;;
3405;SDS011;10008;48.682;9.016;2022-10-16T04:20:05;6.20;;;1.97;;
3405;SDS011;10008;48.682;9.016;2022-10-16T04:22:31;4.03;;;1.60;;
3405;SDS011;10008;48.682;9.016;2022-10-16T04:24:57;3.93;;;1.60;;
3405;SDS011;10008;48.682;9.016;2022-10-16T04:27:23;3.50;;;1.40;;
3405;SDS011;10008;48.682;9.016;2022-10-16T04:29:49;8.60;;;1.83;;
3405;SDS011;10008;48.682;9.016;2022-10-16T04:32:14;4.37;;;1.73;;
3405;SDS011;10008;48.682;9.016;2022-10-16T04:34:41;4.80;;;1.80;;
3405;SDS011;10008;48.682;9.016;2022-10-16T04:37:06;7.10;;;2.37;;
3405;SDS011;10008;48.682;9.016;2022-10-16T04:39:32;5.20;;;2.17;;
3405;SDS011;10008;48.682;9.016;2022-10-16T04:41:58;4.00;;;1.60;;
3405;SDS011;10008;48.682;9.016;2022-10-16T04:44:24;5.03;;;2.10;;
3405;SDS011;10008;48.682;9.016;2022-10-16T04:46:50;5.20;;;1.70;;
3405;SDS011;10008;48.682;9.016;2022-10-16T04:49:16;6.43;;;2.20;;
3405;SDS011;10008;48.682;9.016;2022-10-16T04:51:42;4.07;;;1.53;;
3405;SDS011;10008;48.682;9.016;2022-10-16T04:54:08;10.27;;;1.63;;
3405;SDS011;10008;48.682;9.016;2022-10-16T04:56:34;4.57;;;1.73;;
3405;SDS011;10008;48.682;9.016;2022-10-16T04:59:08;3.73;;;1.70;;
3405;SDS011;10008;48.682;9.016;2022-10-16T05:01:34;4.67;;;1.53;;
3405;SDS011;10008;48.682;9.016;2022-10-16T05:04:00;5.63;;;1.60;;
3405;SDS011;10008;48.682;9.016;2022-10-16T05:06:26;4.73;;;1.80;;
3405;SDS011;10008;48.682;9.016;2022-10-16T05:08:52;5.67;;;2.20;;
3405;SDS011;10008;48.682;9.016;2022-10-16T05:11:18;5.27;;;1.93;;
3405;SDS011;10008;48.682;9.016;2022-10-16T05:13:44;6.70;;;2.47;;
3405;SDS011;10008;48.682;9.016;2022-10-16T05:16:10;6.40;;;3.10;;
3405;SDS011;10008;48.682;9.016;2022-10-16T05:18:36;8.10;;;2.90;;
3405;SDS011;10008;48.682;9.016;2022-10-16T05:21:02;4.77;;;2.20;;
3405;SDS011;10008;48.682;9.016;2022-10-16T05:23:27;3.80;;;1.73;;
3405;SDS011;10008;48.682;9.016;2022-10-16T05:25:56;5.17;;;1.77;;
3405;SDS011;10008;48.682;9.016;2022-10-16T05:28:26;4.27;;;1.60;;
3405;SDS011;10008;48.682;9.016;2022-10-16T05:30:53;4.00;;;1.87;;
3405;SDS011;10008;48.682;9.016;2022-10-16T05:33:20;6.10;;;1.80;;
3405;SDS011;10008;48.682;9.016;2022-10-16T05:35:46;4.67;;;2.00;;
3405;SDS011;10008;48.682;9.016;2022-10-16T05:38:12;4.20;;;1.80;;
3405;SDS011;10008;48.682;9.016;2022-10-16T05:40:38;5.40;;;2.00;;
3405;SDS011;10008;48.682;9.016;2022-10-16T05:43:04;6.10;;;1.90;;
3405;SDS011;10008;48.682;9.016;2022-10-16T05:45:30;7.50;;;2.00;;
3405;SDS011;10008;48.682;9.016;2022-10-16T05:47:56;4.17;;;1.77;;
3405;SDS011;10008;48.682;9.016;2022-10-16T05:50:21;4.83;;;2.00;;
3405;SDS011;10008;48.682;9.016;2022-10-16T05:52:47;4.13;;;2.00;;
3405;SDS011;10008;48.682;9.016;2022-10-16T05:55:13;5.43;;;2.70;;
3405;SDS011;10008;48.682;9.016;2022-10-16T05:57:39;6.30;;;3.50;;
3405;SDS011;10008;48.682;9.016;2022-10-16T06:00:05;4.80;;;2.30;;
3405;SDS011;10008;48.682;9.016;2022-10-16T06:02:37;6.20;;;2.90;;
3405;SDS011;10008;48.682;9.016;2022-10-16T06:05:03;6.63;;;2.57;;
3405;SDS011;10008;48.682;9.016;2022-10-16T06:07:33;6.73;;;2.90;;
3405;SDS011;10008;48.682;9.016;2022-10-16T06:10:00;7.10;;;2.63;;
3405;SDS011;10008;48.682;9.016;2022-10-16T06:12:26;4.20;;;2.00;;
3405;SDS011;10008;48.682;9.016;2022-10-16T06:14:52;7.10;;;2.53;;
3405;SDS011;10008;48.682;9.016;2022-10-16T06:17:18;7.00;;;2.70;;
3405;SDS011;10008;48.682;9.016;2022-10-16T06:19:43;4.87;;;2.50;;
3405;SDS011;10008;48.682;9.016;2022-10-16T06:22:09;5.20;;;2.30;;
3405;SDS011;10008;48.682;9.016;2022-10-16T06:24:35;7.07;;;2.37;;
3405;SDS011;10008;48.682;9.016;2022-10-16T06:27:02;6.93;;;2.03;;
3405;SDS011;10008;48.682;9.016;2022-10-16T06:29:28;5.00;;;2.63;;
3405;SDS011;10008;48.682;9.016;2022-10-16T06:31:54;4.63;;;2.20;;
3405;SDS011;10008;48.682;9.016;2022-10-16T06:34:20;6.50;;;2.50;;
3405;SDS011;10008;48.682;9.016;2022-10-16T06:36:45;4.00;;;2.00;;
3405;SDS011;10008;48.682;9.016;2022-10-16T06:39:11;4.90;;;1.83;;
3405;SDS011;10008;48.682;9.016;2022-10-16T06:41:37;4.73;;;2.40;;
3405;SDS011;10008;48.682;9.016;2022-10-16T06:44:13;5.63;;;1.73;;
3405;SDS011;10008;48.682;9.016;2022-10-16T06:46:39;6.17;;;1.80;;
3405;SDS011;10008;48.682;9.016;2022-10-16T06:49:05;6.30;;;2.30;;
3405;SDS011;10008;48.682;9.016;2022-10-16T06:51:31;6.37;;;2.00;;
3405;SDS011;10008;48.682;9.016;2022-10-16T06:53:59;5.63;;;2.30;;
3405;SDS011;10008;48.682;9.016;2022-10-16T06:56:26;12.63;;;2.80;;
3405;SDS011;10008;48.682;9.016;2022-10-16T06:58:53;5.90;;;2.20;;
3405;SDS011;10008;48.682;9.016;2022-10-16T07:01:20;5.60;;;2.73;;
3405;SDS011;10008;48.682;9.016;2022-10-16T07:03:47;5.03;;;2.47;;
3405;SDS011;10008;48.682;9.016;2022-10-16T07:06:14;4.70;;;2.37;;
3405;SDS011;10008;48.682;9.016;2022-10-16T07:08:42;6.07;;;2.30;;
3405;SDS011;10008;48.682;9.016;2022-10-16T07:11:13;5.50;;;2.40;;
3405;SDS011;10008;48.682;9.016;2022-10-16T07:13:41;6.13;;;2.60;;
3405;SDS011;10008;48.682;9.016;2022-10-16T07:16:08;4.90;;;1.77;;
3405;SDS011;10008;48.682;9.016;2022-10-16T07:18:42;5.23;;;1.93;;
3405;SDS011;10008;48.682;9.016;2022-10-16T07:21:20;4.77;;;2.13;;
3405;SDS011;10008;48.682;9.016;2022-10-16T07:23:50;5.73;;;1.80;;
3405;SDS011;10008;48.682;9.016;2022-10-16T07:26:17;4.60;;;2.00;;
3405;SDS011;10008;48.682;9.016;2022-10-16T07:28:43;10.20;;;6.50;;
3405;SDS011;10008;48.682;9.016;2022-10-16T07:31:10;6.43;;;2.57;;
3405;SDS011;10008;48.682;9.016;2022-10-16T07:33:38;4.40;;;1.97;;
3405;SDS011;10008;48.682;9.016;2022-10-16T07:36:08;4.73;;;1.53;;
3405;SDS011;10008;48.682;9.016;2022-10-16T07:38:34;5.00;;;2.10;;
3405;SDS011;10008;48.682;9.016;2022-10-16T07:41:01;5.70;;;2.30;;
3405;SDS011;10008;48.682;9.016;2022-10-16T07:43:29;5.37;;;2.37;;
3405;SDS011;10008;48.682;9.016;2022-10-16T07:45:56;4.90;;;2.00;;
3405;SDS011;10008;48.682;9.016;2022-10-16T07:48:22;4.30;;;2.07;;
3405;SDS011;10008;48.682;9.016;2022-10-16T07:50:49;5.63;;;2.07;;
3405;SDS011;10008;48.682;9.016;2022-10-16T07:53:15;4.97;;;2.00;;
3405;SDS011;10008;48.682;9.016;2022-10-16T07:55:41;5.87;;;2.07;;
3405;SDS011;10008;48.682;9.016;2022-10-16T07:58:07;4.20;;;1.60;;
3405;SDS011;10008;48.682;9.016;2022-10-16T08:00:33;5.10;;;1.47;;
3405;SDS011;10008;48.682;9.016;2022-10-16T08:02:59;4.50;;;1.93;;
3405;SDS011;10008;48.682;9.016;2022-10-16T08:05:28;4.80;;;1.40;;
3405;SDS011;10008;48.682;9.016;2022-10-16T08:07:56;4.33;;;1.70;;
3405;SDS011;10008;48.682;9.016;2022-10-16T08:10:22;4.47;;;1.43;;
3405;SDS011;10008;48.682;9.016;2022-10-16T08:12:50;8.30;;;1.43;;
3405;SDS011;10008;48.682;9.016;2022-10-16T08:15:16;5.10;;;1.73;;
3405;SDS011;10008;48.682;9.016;2022-10-16T08:17:42;6.53;;;1.53;;
3405;SDS011;10008;48.682;9.016;2022-10-16T08:20:08;7.03;;;1.90;;
3405;SDS011;10008;48.682;9.016;2022-10-16T08:22:35;9.40;;;4.23;;
3405;SDS011;10008;48.682;9.016;2022-10-16T08:25:00;4.30;;;1.97;;
3405;SDS011;10008;48.682;9.016;2022-10-16T08:27:31;4.83;;;1.43;;
3405;SDS011;10008;48.682;9.016;2022-10-16T08:29:57;5.30;;;1.30;;
3405;SDS011;10008;48.682;9.016;2022-10-16T08:32:23;4.90;;;1.50;;
3405;SDS011;10008;48.682;9.016;2022-10-16T08:34:49;4.67;;;1.80;;
3405;SDS011;10008;48.682;9.016;2022-10-16T08:37:14;4.50;;;1.77;;
3405;SDS011;10008;48.682;9.016;2022-10-16T08:39:40;7.87;;;1.77;;
3405;SDS011;10008;48.682;9.016;2022-10-16T08:42:29;4.63;;;1.60;;
3405;SDS011;10008;48.682;9.016;2022-10-16T08:48:23;7.03;;;2.00;;
3405;SDS011;10008;48.682;9.016;2022-10-16T08:50:54;6.57;;;1.77;;
3405;SDS011;10008;48.682;9.016;2022-10-16T08:53:22;4.93;;;1.70;;
3405;SDS011;10008;48.682;9.016;2022-10-16T08:55:54;4.90;;;1.80;;
3405;SDS011;10008;48.682;9.016;2022-10-16T08:58:21;9.10;;;1.70;;
3405;SDS011;10008;48.682;9.016;2022-10-16T09:00:55;5.43;;;1.57;;
3405;SDS011;10008;48.682;9.016;2022-10-16T09:03:25;8.40;;;2.20;;
3405;SDS011;10008;48.682;9.016;2022-10-16T09:14:15;6.70;;;1.67;;
3405;SDS011;10008;48.682;9.016;2022-10-16T09:19:59;4.83;;;1.50;;
3405;SDS011;10008;48.682;9.016;2022-10-16T09:25:30;5.50;;;1.60;;
3405;SDS011;10008;48.682;9.016;2022-10-16T09:27:57;6.63;;;1.40;;
3405;SDS011;10008;48.682;9.016;2022-10-16T09:30:25;7.57;;;1.87;;
3405;SDS011;10008;48.682;9.016;2022-10-16T09:32:52;5.17;;;1.43;;
3405;SDS011;10008;48.682;9.016;2022-10-16T09:35:20;4.27;;;1.50;;
3405;SDS011;10008;48.682;9.016;2022-10-16T09:37:50;4.47;;;1.30;;
3405;SDS011;10008;48.682;9.016;2022-10-16T09:40:32;4.63;;;1.53;;
3405;SDS011;10008;48.682;9.016;2022-10-16T09:43:06;4.30;;;1.20;;
3405;SDS011;10008;48.682;9.016;2022-10-16T09:46:02;4.90;;;1.50;;
3405;SDS011;10008;48.682;9.016;2022-10-16T09:48:39;4.73;;;1.70;;
3405;SDS011;10008;48.682;9.016;2022-10-16T09:51:24;5.50;;;1.40;;
3405;SDS011;10008;48.682;9.016;2022-10-16T09:53:56;4.10;;;1.50;;
3405;SDS011;10008;48.682;9.016;2022-10-16T09:56:23;3.60;;;1.10;;
3405;SDS011;10008;48.682;9.016;2022-10-16T09:58:55;4.90;;;1.20;;
3405;SDS011;10008;48.682;9.016;2022-10-16T10:01:24;5.90;;;1.30;;
3405;SDS011;10008;48.682;9.016;2022-10-16T10:04:00;4.03;;;1.40;;
3405;SDS011;10008;48.682;9.016;2022-10-16T10:14:15;5.93;;;2.17;;
3405;SDS011;10008;48.682;9.016;2022-10-16T10:16:47;6.60;;;1.10;;
3405;SDS011;10008;48.682;9.016;2022-10-16T10:19:15;3.60;;;1.10;;
3405;SDS011;10008;48.682;9.016;2022-10-16T10:21:43;3.90;;;1.10;;
3405;SDS011;10008;48.682;9.016;2022-10-16T10:24:11;3.80;;;1.10;;
3405;SDS011;10008;48.682;9.016;2022-10-16T10:26:38;4.47;;;1.20;;
3405;SDS011;10008;48.682;9.016;2022-10-16T10:34:55;5.03;;;1.30;;
3405;SDS011;10008;48.682;9.016;2022-10-16T10:37:51;4.03;;;1.20;;
3405;SDS011;10008;48.682;9.016;2022-10-16T10:48:29;4.73;;;1.40;;
3405;SDS011;10008;48.682;9.016;2022-10-16T10:51:11;4.90;;;2.23;;
3405;SDS011;10008;48.682;9.016;2022-10-16T10:56:56;6.20;;;1.33;;
3405;SDS011;10008;48.682;9.016;2022-10-16T11:09:47;4.27;;;1.40;;
3405;SDS011;10008;48.682;9.016;2022-10-16T11:13:03;5.13;;;1.10;;
3405;SDS011;10008;48.682;9.016;2022-10-16T11:15:18;5.13;;;1.30;;
3405;SDS011;10008;48.682;9.016;2022-10-16T11:18:40;4.27;;;1.43;;
3405;SDS011;10008;48.682;9.016;2022-10-16T11:20:49;4.93;;;1.30;;
3405;SDS011;10008;48.682;9.016;2022-10-16T11:23:23;4.97;;;1.30;;
3405;SDS011;10008;48.682;9.016;2022-10-16T11:25:50;4.30;;;1.37;;
3405;SDS011;10008;48.682;9.016;2022-10-16T11:28:23;7.77;;;2.20;;
3405;SDS011;10008;48.682;9.016;2022-10-16T11:39:19;3.80;;;1.50;;
3405;SDS011;10008;48.682;9.016;2022-10-16T11:41:53;5.13;;;1.53;;
3405;SDS011;10008;48.682;9.016;2022-10-16T11:44:34;4.33;;;1.37;;
3405;SDS011;10008;48.682;9.016;2022-10-16T11:49:44;11.40;;;8.40;;
3405;SDS011;10008;48.682;9.016;2022-10-16T11:54:52;4.10;;;1.33;;
3405;SDS011;10008;48.682;9.016;2022-10-16T11:57:26;4.47;;;1.37;;
3405;SDS011;10008;48.682;9.016;2022-10-16T12:00:02;4.97;;;1.43;;
3405;SDS011;10008;48.682;9.016;2022-10-16T12:08:33;4.87;;;2.00;;
3405;SDS011;10008;48.682;9.016;2022-10-16T12:11:20;4.47;;;1.40;;
3405;SDS011;10008;48.682;9.016;2022-10-16T12:19:21;4.77;;;1.77;;
3405;SDS011;10008;48.682;9.016;2022-10-16T12:21:49;4.20;;;1.70;;
3405;SDS011;10008;48.682;9.016;2022-10-16T12:24:31;4.30;;;1.50;;
3405;SDS011;10008;48.682;9.016;2022-10-16T12:27:02;4.30;;;1.70;;
3405;SDS011;10008;48.682;9.016;2022-10-16T12:29:39;6.27;;;2.40;;
3405;SDS011;10008;48.682;9.016;2022-10-16T12:34:47;5.30;;;1.60;;
3405;SDS011;10008;48.682;9.016;2022-10-16T12:39:45;4.23;;;1.40;;
3405;SDS011;10008;48.682;9.016;2022-10-16T12:44:47;5.47;;;1.70;;
3405;SDS011;10008;48.682;9.016;2022-10-16T12:49:57;6.13;;;1.70;;
3405;SDS011;10008;48.682;9.016;2022-10-16T12:52:28;4.67;;;1.80;;
3405;SDS011;10008;48.682;9.016;2022-10-16T12:55:03;4.27;;;1.80;;
3405;SDS011;10008;48.682;9.016;2022-10-16T13:08:28;4.10;;;1.83;;
3405;SDS011;10008;48.682;9.016;2022-10-16T13:13:51;4.50;;;1.80;;
3405;SDS011;10008;48.682;9.016;2022-10-16T13:27:55;6.67;;;1.80;;
3405;SDS011;10008;48.682;9.016;2022-10-16T13:30:31;4.23;;;1.43;;
3405;SDS011;10008;48.682;9.016;2022-10-16T13:33:07;4.17;;;1.87;;
3405;SDS011;10008;48.682;9.016;2022-10-16T13:35:47;6.40;;;1.80;;
3405;SDS011;10008;48.682;9.016;2022-10-16T13:38:19;7.17;;;1.97;;
3405;SDS011;10008;48.682;9.016;2022-10-16T13:40:53;6.03;;;1.43;;
3405;SDS011;10008;48.682;9.016;2022-10-16T13:43:25;4.57;;;1.80;;
3405;SDS011;10008;48.682;9.016;2022-10-16T13:45:55;5.47;;;1.50;;
3405;SDS011;10008;48.682;9.016;2022-10-16T13:48:25;5.80;;;1.90;;
3405;SDS011;10008;48.682;9.016;2022-10-16T13:51:11;6.23;;;1.90;;
3405;SDS011;10008;48.682;9.016;2022-10-16T13:53:41;5.93;;;2.00;;
3405;SDS011;10008;48.682;9.016;2022-10-16T13:56:12;4.80;;;1.80;;
3405;SDS011;10008;48.682;9.016;2022-10-16T13:58:40;4.60;;;1.70;;
3405;SDS011;10008;48.682;9.016;2022-10-16T14:01:15;5.67;;;2.13;;
3405;SDS011;10008;48.682;9.016;2022-10-16T14:03:41;4.60;;;1.97;;
3405;SDS011;10008;48.682;9.016;2022-10-16T14:06:11;6.00;;;2.00;;
3405;SDS011;10008;48.682;9.016;2022-10-16T14:08:44;6.00;;;1.90;;
3405;SDS011;10008;48.682;9.016;2022-10-16T14:11:13;5.27;;;2.10;;
3405;SDS011;10008;48.682;9.016;2022-10-16T14:13:48;4.83;;;1.83;;
3405;SDS011;10008;48.682;9.016;2022-10-16T14:16:16;4.50;;;2.13;;
3405;SDS011;10008;48.682;9.016;2022-10-16T14:19:00;4.53;;;1.93;;
3405;SDS011;10008;48.682;9.016;2022-10-16T14:21:29;5.70;;;2.00;;
3405;SDS011;10008;48.682;9.016;2022-10-16T14:23:55;5.00;;;1.83;;
3405;SDS011;10008;48.682;9.016;2022-10-16T14:26:26;5.47;;;2.23;;
3405;SDS011;10008;48.682;9.016;2022-10-16T14:29:12;6.30;;;3.17;;
3405;SDS011;10008;48.682;9.016;2022-10-16T14:31:39;4.97;;;1.80;;
3405;SDS011;10008;48.682;9.016;2022-10-16T14:34:27;4.73;;;1.80;;
3405;SDS011;10008;48.682;9.016;2022-10-16T14:36:55;4.40;;;1.90;;
3405;SDS011;10008;48.682;9.016;2022-10-16T14:39:23;5.07;;;1.87;;
3405;SDS011;10008;48.682;9.016;2022-10-16T14:41:51;4.87;;;1.80;;
3405;SDS011;10008;48.682;9.016;2022-10-16T14:44:19;5.87;;;2.00;;
3405;SDS011;10008;48.682;9.016;2022-10-16T14:46:53;4.67;;;1.73;;
3405;SDS011;10008;48.682;9.016;2022-10-16T14:49:19;6.63;;;2.00;;
3405;SDS011;10008;48.682;9.016;2022-10-16T14:51:47;4.17;;;1.57;;
3405;SDS011;10008;48.682;9.016;2022-10-16T14:54:16;5.00;;;1.70;;
3405;SDS011;10008;48.682;9.016;2022-10-16T14:56:56;5.60;;;2.10;;
3405;SDS011;10008;48.682;9.016;2022-10-16T15:02:13;5.03;;;1.90;;
3405;SDS011;10008;48.682;9.016;2022-10-16T15:04:48;5.30;;;2.00;;
3405;SDS011;10008;48.682;9.016;2022-10-16T15:07:14;8.40;;;2.03;;
3405;SDS011;10008;48.682;9.016;2022-10-16T15:09:40;5.50;;;1.70;;
3405;SDS011;10008;48.682;9.016;2022-10-16T15:12:06;11.13;;;2.07;;
3405;SDS011;10008;48.682;9.016;2022-10-16T15:14:31;5.13;;;1.70;;
3405;SDS011;10008;48.682;9.016;2022-10-16T15:16:57;10.13;;;1.87;;
3405;SDS011;10008;48.682;9.016;2022-10-16T15:19:23;5.23;;;1.70;;
3405;SDS011;10008;48.682;9.016;2022-10-16T15:21:49;8.50;;;3.37;;
3405;SDS011;10008;48.682;9.016;2022-10-16T15:24:15;7.00;;;2.50;;
3405;SDS011;10008;48.682;9.016;2022-10-16T15:26:41;6.13;;;2.10;;
3405;SDS011;10008;48.682;9.016;2022-10-16T15:29:07;5.20;;;1.70;;
3405;SDS011;10008;48.682;9.016;2022-10-16T15:31:33;4.77;;;1.70;;
3405;SDS011;10008;48.682;9.016;2022-10-16T15:33:59;4.27;;;1.90;;
3405;SDS011;10008;48.682;9.016;2022-10-16T15:36:33;8.30;;;1.63;;
3405;SDS011;10008;48.682;9.016;2022-10-16T15:39:20;4.30;;;1.67;;
3405;SDS011;10008;48.682;9.016;2022-10-16T15:41:47;4.70;;;1.80;;
3405;SDS011;10008;48.682;9.016;2022-10-16T15:44:18;4.13;;;1.50;;
3405;SDS011;10008;48.682;9.016;2022-10-16T15:46:46;7.40;;;1.80;;
3405;SDS011;10008;48.682;9.016;2022-10-16T15:49:12;5.53;;;1.93;;
3405;SDS011;10008;48.682;9.016;2022-10-16T15:51:38;5.27;;;1.93;;
3405;SDS011;10008;48.682;9.016;2022-10-16T15:54:05;5.23;;;1.90;;
3405;SDS011;10008;48.682;9.016;2022-10-16T15:56:31;5.87;;;2.50;;
3405;SDS011;10008;48.682;9.016;2022-10-16T15:58:59;7.30;;;2.70;;
3405;SDS011;10008;48.682;9.016;2022-10-16T16:01:26;8.77;;;2.30;;
3405;SDS011;10008;48.682;9.016;2022-10-16T16:03:52;5.97;;;2.13;;
3405;SDS011;10008;48.682;9.016;2022-10-16T16:06:18;5.63;;;2.10;;
3405;SDS011;10008;48.682;9.016;2022-10-16T16:08:47;7.53;;;2.70;;
3405;SDS011;10008;48.682;9.016;2022-10-16T16:11:13;7.73;;;2.43;;
3405;SDS011;10008;48.682;9.016;2022-10-16T16:13:40;7.13;;;2.60;;
3405;SDS011;10008;48.682;9.016;2022-10-16T16:16:08;5.63;;;2.03;;
3405;SDS011;10008;48.682;9.016;2022-10-16T16:18:35;8.20;;;2.10;;
3405;SDS011;10008;48.682;9.016;2022-10-16T16:21:02;7.97;;;2.70;;
3405;SDS011;10008;48.682;9.016;2022-10-16T16:23:28;8.17;;;2.80;;
3405;SDS011;10008;48.682;9.016;2022-10-16T16:28:39;7.43;;;3.73;;
3405;SDS011;10008;48.682;9.016;2022-10-16T16:31:05;8.30;;;4.90;;
3405;SDS011;10008;48.682;9.016;2022-10-16T16:33:32;12.83;;;8.90;;
3405;SDS011;10008;48.682;9.016;2022-10-16T16:35:59;12.77;;;8.53;;
3405;SDS011;10008;48.682;9.016;2022-10-16T16:38:28;12.33;;;7.90;;
3405;SDS011;10008;48.682;9.016;2022-10-16T16:40:55;13.17;;;7.63;;
3405;SDS011;10008;48.682;9.016;2022-10-16T16:43:25;10.30;;;7.00;;
3405;SDS011;10008;48.682;9.016;2022-10-16T16:45:52;17.87;;;9.97;;
3405;SDS011;10008;48.682;9.016;2022-10-16T16:48:19;15.80;;;10.50;;
3405;SDS011;10008;48.682;9.016;2022-10-16T16:50:45;15.53;;;9.10;;
3405;SDS011;10008;48.682;9.016;2022-10-16T16:53:12;30.43;;;22.13;;
3405;SDS011;10008;48.682;9.016;2022-10-16T16:55:38;10.73;;;6.17;;
3405;SDS011;10008;48.682;9.016;2022-10-16T16:58:04;10.20;;;5.90;;
3405;SDS011;10008;48.682;9.016;2022-10-16T17:00:30;10.83;;;5.47;;
3405;SDS011;10008;48.682;9.016;2022-10-16T17:02:56;8.17;;;5.50;;
3405;SDS011;10008;48.682;9.016;2022-10-16T17:05:22;11.27;;;5.90;;
3405;SDS011;10008;48.682;9.016;2022-10-16T17:07:48;13.60;;;8.50;;
3405;SDS011;10008;48.682;9.016;2022-10-16T17:10:14;13.60;;;8.57;;
3405;SDS011;10008;48.682;9.016;2022-10-16T17:12:40;13.27;;;7.83;;
3405;SDS011;10008;48.682;9.016;2022-10-16T17:15:06;17.20;;;11.80;;
3405;SDS011;10008;48.682;9.016;2022-10-16T17:17:32;9.40;;;4.27;;
3405;SDS011;10008;48.682;9.016;2022-10-16T17:19:58;10.03;;;3.90;;
3405;SDS011;10008;48.682;9.016;2022-10-16T17:22:24;9.03;;;4.00;;
3405;SDS011;10008;48.682;9.016;2022-10-16T17:24:49;11.50;;;5.50;;
3405;SDS011;10008;48.682;9.016;2022-10-16T17:27:17;8.27;;;4.20;;
3405;SDS011;10008;48.682;9.016;2022-10-16T17:29:43;8.70;;;3.83;;